KSRQ/SRQ METAR and TAF weather

Enter ICAO airport designator
Station Type Date Time Source
KSRQ METAR 2020/07/15 06:53 UTC NOAA

KSRQ 150653Z AUTO 01003KT 10SM FEW025 FEW035 28/24 A3001 RMK AO2 SLP163 T02830244


Station Type Date Time Source
KSRQ Decoded METAR 2020/07/15 06:53 UTC NOAA

SARASOTA/BRADENTON INTERNATIONAL ., FL, United States (KSRQ) 27-24N 082-33W 18M
Jul 15, 2020 - 02:53 AM EDT / 2020.07.15 0653 UTC
Wind: from the N (010 degrees) at 3 MPH (3 KT):0
Visibility: 10 mile(s):0
Sky conditions: mostly clear
Temperature: 82.9 F (28.3 C)
Dew Point: 75.9 F (24.4 C)
Relative Humidity: 79%
Pressure (altimeter): 30.01 in. Hg (1016 hPa)
ob: KSRQ 150653Z AUTO 01003KT 10SM FEW025 FEW035 28/24 A3001 RMK AO2 SLP163 T02830244
cycle: 7

Station Type Date Time Source
KSRQ TAF 2020/07/15 06:33 UTC NOAA

TAF KSRQ 150530Z 1506/1606 VRB04KT P6SM SCT025 SCT250
FM151500 28007KT P6SM VCTS SCT030CB SCT130 BKN250
FM151900 30008KT P6SM FEW035 BKN250
FM160200 VRB03KT P6SM FEW030 BKN250

Example: see airport list